Nearby METAR Reports

 

KTAN - Taunton, Massachusetts, USA
Distance from station: W 5mi, 8km
Updated: Sun, 29-Nov-2020 6:52am EST
Clear
Clear
 Wind from calm
Wind: Calm
Temperature: 30°F , -1°C
Dew Point: 27°F , -3°C
Humidity: 86%
Barometer: 30.11 inHg , 1019.6 hPa
Clouds: Clear
Visibility: 10 miles , 16 km
2020/11/29 11:52 KTAN 291152Z AUTO 00000KT 10SM CLR M01/M03 A3011 RMK AO2 SLP195 I1000 I6000 T10111033 10000 21022 52018 $
KPYM - Plymouth, Massachusetts, USA
Distance from station: ENE 10mi, 16km
Updated: Sun, 29-Nov-2020 6:52am EST
Clear
Clear
 Wind from WSW
Wind: WSW 6 mph , 9 km/h
Temperature: 30°F , -1°C
Wind Chill: 24°F , -4°C
Dew Point: 27°F , -3°C
Humidity: 86%
Barometer: 30.10 inHg , 1019.3 hPa
Clouds: Clear
Visibility: 10 miles , 16 km
2020/11/29 11:52 KPYM 291152Z AUTO 24005KT 10SM CLR M01/M03 A3010 RMK AO2 SLP194 T10111033 10028 21017 53017
 
KEWB - New Bedford, Massachusetts, USA
Distance from station: S 14mi, 23km
Updated: Sun, 29-Nov-2020 6:53am EST
Clear
Clear
 Wind from calm
Wind: Calm
Temperature: 28°F , -2°C
Dew Point: 27°F , -3°C
Humidity: 93%
Barometer: 30.11 inHg , 1019.6 hPa
Clouds: Clear
Visibility: 10 miles , 16 km
2020/11/29 11:53 KEWB 291153Z 00000KT 10SM CLR M02/M03 A3011 RMK AO2 SLP196 T10171033 10039 21022 51018
KGHG - Marshfield, Massachusetts, USA
Distance from station: NE 20mi, 31km
Updated: Sun, 29-Nov-2020 7:35am EST
Clear
Clear
 Wind from calm
Wind: Calm
Temperature: 36°F , 2°C
Dew Point: 30°F , -1°C
Humidity: 81%
Barometer: 30.11 inHg , 1019.6 hPa
Clouds: Clear
Visibility: 10 miles , 16 km
2020/11/29 12:35 KGHG 291235Z AUTO 00000KT 10SM CLR 02/M01 A3011 RMK AO2
 
KOWD - Norwood, Massachusetts, USA
Distance from station: NNW 24mi, 39km
Updated: Sun, 29-Nov-2020 6:53am EST
Clear
Clear
 Wind from calm
Wind: Calm
Temperature: 32°F , 0°C
Dew Point: 27°F , -3°C
Humidity: 80%
Barometer: 30.10 inHg , 1019.3 hPa
Clouds: Clear
Visibility: 10 miles , 16 km
2020/11/29 11:53 KOWD 291153Z 00000KT 10SM CLR 00/M03 A3010 RMK AO2 SLP192 I6000 T00001033 10028 21022 51015
KMQE - East Milton, Massachusetts, USA
Distance from station: NNW 25mi, 40km
Updated: Sun, 29-Nov-2020 6:51am EST

 Wind from W
Wind: W 12 mph , 19 km/h
Temperature: 34°F , 1°C
Wind Chill: 25°F , -4°C
Dew Point: 27°F , -3°C
Humidity: 75%
Barometer: 30.06 inHg , 1017.9 hPa
2020/11/29 11:51 KMQE 291151Z AUTO 26010KT 01/M03 A3006 RMK AO1 SLP196 T00061033 10017 20006 51016
 
KFMH - Falmouth/Otis Ab, Massachusetts, USA
Distance from station: SE 27mi, 44km
Updated: Sun, 29-Nov-2020 5:45am EST
NOT Current
Clear
Clear
 Wind from WNW
Wind: WNW 7 mph , 11 km/h
Temperature: 30°F , -1°C
Wind Chill: 23°F , -5°C
Dew Point: 28°F , -2°C
Humidity: 93%
Barometer: 30.10 inHg , 1019.3 hPa
Clouds: Clear
Visibility: 10 miles , 16 km
2020/11/29 10:45 KFMH 291045Z 30006KT 10SM CLR M01/M02 A3010
KPVD - Providence/Green, Rhode Island, USA
Distance from station: WSW 29mi, 47km
Updated: Sun, 29-Nov-2020 6:51am EST
Clear
Clear
 Wind from S
Wind: S 3 mph , 6 km/h
Temperature: 32°F , 0°C
Dew Point: 28°F , -2°C
Humidity: 87%
Barometer: 30.13 inHg , 1020.3 hPa
Clouds: Clear
Visibility: 10 miles , 16 km
2020/11/29 11:51 KPVD 291151Z 17003KT 10SM CLR 00/M02 A3013 RMK AO2 SLP201 T00001022 10033 21006 51019 $
 
KSFZ - Pawtucket, Rhode Island, USA
Distance from station: W 30mi, 48km
Updated: Sun, 29-Nov-2020 6:56am EST
Clear
Clear
 Wind from calm
Wind: Calm
Temperature: 30°F , -1°C
Dew Point: 27°F , -3°C
Humidity: 86%
Barometer: 30.11 inHg , 1019.6 hPa
Clouds: Clear
Visibility: 10 miles , 16 km
2020/11/29 11:56 KSFZ 291156Z AUTO 00000KT 10SM CLR M01/M03 A3011 RMK AO2 SLP144 7//// T10111028 10022 21011 51020 FZRANO
KUUU - Newport, Rhode Island, USA
Distance from station: SW 31mi, 50km
Updated: Sun, 29-Nov-2020 6:53am EST
Clear
Clear
 Wind from WNW
Wind: WNW 5 mph , 7 km/h
Temperature: 37°F , 3°C
Wind Chill: 33°F , 1°C
Dew Point: 30°F , -1°C
Humidity: 75%
Barometer: 30.12 inHg , 1020 hPa
Clouds: Clear
Visibility: 10 miles , 16 km
2020/11/29 11:53 KUUU 291153Z AUTO 29004KT 10SM CLR 03/M01 A3012 RMK AO2 SLP199 T00281011 10039 20017 51017
 
KOQU - N. Kingston/Quon, Rhode Island, USA
Distance from station: SW 32mi, 52km
Updated: Sat, 28-Nov-2020 4:50pm EST
NOT Current
Mostly cloudy
Mostly cloudy
 Wind from WNW
Wind: WNW 13 mph , 20 km/h
Temperature: 50°F , 10°C
Wind Chill: 45°F , 7°C
Dew Point: 36°F , 2°C
Humidity: 58%
Barometer: 29.94 inHg , 1013.9 hPa
Clouds: Mostly cloudy
Visibility: 10 miles , 16 km
Cloud details: Mostly cloudy 6000 ft
2020/11/28 21:50 KOQU 282150Z 30011KT 10SM BKN060 10/02 A2994 RMK LAST
KBOS - Boston, Massachusetts, USA
Distance from station: N 33mi, 54km
Updated: Sun, 29-Nov-2020 6:54am EST
Clear
Clear
 Wind from WSW
Wind: WSW 6 mph , 9 km/h
Temperature: 37°F , 3°C
Wind Chill: 32°F , 0°C
Dew Point: 27°F , -3°C
Humidity: 65%
Barometer: 30.10 inHg , 1019.3 hPa
Clouds: Clear
Visibility: 10 miles , 16 km
2020/11/29 11:54 KBOS 291154Z 25005KT 10SM CLR 03/M03 A3010 RMK AO2 SLP191 T00331028 10050 20033 53015
 
KHYA - Hyannis, Massachusetts, USA
Distance from station: ESE 37mi, 59km
Updated: Sun, 29-Nov-2020 6:56am EST
Clear
Clear
 Wind from W
Wind: W 7 mph , 11 km/h
Temperature: 37°F , 3°C
Wind Chill: 32°F , 0°C
Dew Point: 28°F , -2°C
Humidity: 70%
Barometer: 30.09 inHg , 1019 hPa
Clouds: Clear
Visibility: 10 miles , 16 km
2020/11/29 11:56 KHYA 291156Z 27006KT 10SM CLR 03/M02 A3009 RMK AO2 SLP192 T00281017 10044 20022 53017
KMVY - Marthas Vineyard, Massachusetts, USA
Distance from station: SSE 37mi, 60km
Updated: Sun, 29-Nov-2020 6:53am EST
Clear
Clear
 Wind from WNW
Wind: WNW 5 mph , 7 km/h
Temperature: 39°F , 4°C
Wind Chill: 35°F , 2°C
Dew Point: 30°F , -1°C
Humidity: 70%
Barometer: 30.12 inHg , 1020 hPa
Clouds: Clear
Visibility: 10 miles , 16 km
2020/11/29 11:53 KMVY 291153Z 30004KT 10SM CLR 04/M01 A3012 RMK AO2 SLP198 70001 T00441011 10050 20000 53018
 
KPVC - Provincetown, Massachusetts, USA
Distance from station: ENE 38mi, 61km
Updated: Sun, 29-Nov-2020 6:56am EST
Clear
Clear
 Wind from W
Wind: W 10 mph , 17 km/h
Temperature: 41°F , 5°C
Wind Chill: 35°F , 2°C
Dew Point: 32°F , 0°C
Humidity: 70%
Barometer: 30.10 inHg , 1019.3 hPa
Clouds: Clear
Visibility: 10 miles , 16 km
2020/11/29 11:56 KPVC 291156Z AUTO 27009KT 10SM CLR 05/00 A3010 RMK AO2 SLP194 6//// 7//// T00500000 10067 20044 53018 PNO $
KBED - Bedford, Massachusetts, USA
Distance from station: NNW 44mi, 72km
Updated: Sun, 29-Nov-2020 6:51am EST
Clear
Clear
 Wind from NW
Wind: NW 3 mph , 6 km/h
Temperature: 28°F , -2°C
Dew Point: 25°F , -4°C
Humidity: 86%
Barometer: 30.08 inHg , 1018.6 hPa
Clouds: Clear
Visibility: 10 miles , 16 km
2020/11/29 11:51 KBED 291151Z 31003KT 10SM CLR M02/M04 A3008 RMK AO2 SLP202 T10171039 10022 21033 51015
 
KBVY - Beverly, Massachusetts, USA
Distance from station: 0 48mi, 77km
Updated: Sun, 29-Nov-2020 6:53am EST
Clear
Clear
 Wind from NW
Wind: NW 6 mph , 9 km/h
Temperature: 36°F , 2°C
Wind Chill: 31°F , -1°C
Dew Point: 27°F , -3°C
Humidity: 70%
Barometer: 30.07 inHg , 1018.3 hPa
Clouds: Clear
Visibility: 10 miles , 16 km
2020/11/29 11:53 KBVY 291153Z 31005KT 10SM CLR 02/M03 A3007 RMK AO2 SLP180 70001 T00221028 10028 20011 53014
KCQX - Chatham, Massachusetts, USA
Distance from station: ESE 49mi, 80km
Updated: Sun, 29-Nov-2020 6:52am EST
Clear
Clear
 Wind from varies
Wind: varies 3 mph , 6 km/h
Temperature: 37°F , 3°C
Dew Point: 28°F , -2°C
Humidity: 70%
Barometer: 30.11 inHg , 1019.6 hPa
Clouds: Clear
Visibility: 10 miles , 16 km
2020/11/29 11:52 KCQX 291152Z AUTO VRB03KT 10SM CLR 03/M02 A3011 RMK AO2 SLP197 T00281017 10061 20028 53016